createdAt,value
2019-05-15T00:01:08.495Z,60.30
2019-05-15T00:03:39.100Z,59.60
2019-05-15T00:06:08.507Z,57.70
2019-05-15T00:08:38.691Z,57.00
2019-05-15T00:11:08.284Z,56.70
2019-05-15T00:13:38.913Z,57.10
2019-05-15T00:16:08.436Z,58.10
2019-05-15T00:18:39.124Z,57.50
2019-05-15T00:21:09.162Z,57.90
2019-05-15T00:23:38.788Z,57.80
2019-05-15T00:26:09.231Z,60.00
2019-05-15T00:28:38.804Z,58.90
2019-05-15T00:31:09.058Z,57.50
2019-05-15T00:33:39.322Z,57.50
2019-05-15T00:36:08.613Z,57.40
2019-05-15T00:38:39.007Z,57.60
2019-05-15T00:41:09.407Z,57.10
2019-05-15T00:43:38.697Z,56.90
2019-05-15T00:46:09.169Z,58.10
2019-05-15T00:48:39.937Z,60.30
2019-05-15T00:51:08.519Z,60.60
2019-05-15T00:53:38.976Z,60.90
2019-05-15T00:56:08.851Z,62.10
2019-05-15T00:58:39.945Z,62.20
2019-05-15T01:01:08.358Z,63.90
2019-05-15T01:03:38.715Z,64.20
2019-05-15T01:06:08.376Z,65.40
2019-05-15T01:08:39.309Z,66.00
2019-05-15T01:11:09.119Z,66.10
2019-05-15T01:13:38.788Z,66.40
2019-05-15T01:16:09.132Z,65.40
2019-05-15T01:18:38.468Z,65.30
2019-05-15T01:21:08.379Z,65.80
2019-05-15T01:23:39.105Z,67.40
2019-05-15T01:26:08.306Z,68.90
2019-05-15T01:28:38.469Z,69.40
2019-05-15T01:31:08.595Z,66.00
2019-05-15T01:33:39.002Z,65.00
2019-05-15T01:36:08.509Z,62.50
2019-05-15T01:38:38.867Z,61.60
2019-05-15T01:41:09.661Z,61.10
2019-05-15T01:43:38.163Z,60.60
2019-05-15T01:46:08.445Z,60.00
2019-05-15T01:48:38.735Z,59.80
2019-05-15T01:51:09.291Z,59.30
2019-05-15T01:53:38.616Z,59.70
2019-05-15T01:56:08.465Z,60.20
2019-05-15T01:58:38.167Z,59.40
2019-05-15T02:01:08.203Z,59.20
2019-05-15T02:03:38.549Z,60.30
2019-05-15T02:06:08.279Z,60.60
2019-05-15T02:08:39.270Z,61.40
2019-05-15T02:11:09.115Z,63.80
2019-05-15T02:13:38.911Z,65.60
2019-05-15T02:16:08.389Z,66.50
2019-05-15T02:18:39.175Z,67.10
2019-05-15T02:21:09.975Z,66.70
2019-05-15T02:23:38.812Z,67.30
2019-05-15T02:26:08.070Z,67.90
2019-05-15T02:28:38.375Z,69.60
2019-05-15T02:31:10.203Z,69.50
2019-05-15T02:33:39.933Z,70.70
2019-05-15T02:36:09.762Z,71.40
2019-05-15T02:38:40.818Z,72.00
2019-05-15T02:41:09.885Z,70.70
2019-05-15T02:43:39.324Z,69.20
2019-05-15T02:46:10.158Z,67.50
2019-05-15T02:48:40.852Z,67.00
2019-05-15T02:57:59.076Z,66.70
2019-05-15T03:00:37.888Z,66.00
2019-05-15T03:03:00.209Z,66.00
2019-05-15T03:05:29.474Z,65.60
2019-05-15T03:07:59.338Z,65.10
2019-05-15T03:10:29.613Z,65.80
2019-05-15T03:13:00.149Z,66.10
2019-05-15T03:15:29.216Z,66.10
2019-05-15T03:18:00.476Z,65.70
2019-05-15T03:20:29.837Z,65.10
2019-05-15T03:22:59.875Z,66.10
2019-05-15T03:25:29.742Z,66.80
2019-05-15T03:27:59.592Z,67.00
2019-05-15T03:30:32.400Z,69.00
2019-05-15T03:33:07.793Z,70.10
2019-05-15T03:35:32.885Z,71.30
2019-05-15T03:37:59.820Z,71.00
2019-05-15T03:40:29.996Z,71.10
2019-05-15T03:42:59.337Z,73.00
2019-05-15T03:45:29.675Z,74.20
2019-05-15T03:47:59.528Z,75.10
2019-05-15T03:50:29.128Z,75.40
2019-05-15T03:52:58.851Z,75.90
2019-05-15T03:55:29.634Z,75.60
2019-05-15T03:57:59.208Z,76.60
2019-05-15T04:00:30.163Z,77.20
2019-05-15T04:02:59.029Z,77.30
2019-05-15T04:05:29.366Z,77.10
2019-05-15T04:07:59.906Z,76.40
2019-05-15T04:10:28.981Z,76.10
2019-05-15T04:12:59.975Z,76.40
2019-05-15T04:15:30.132Z,76.20
2019-05-15T04:18:00.312Z,75.60
2019-05-15T04:20:29.773Z,76.50
2019-05-15T04:23:00.365Z,76.00
2019-05-15T04:25:29.922Z,76.70
2019-05-15T04:28:00.725Z,75.70
2019-05-15T04:30:30.891Z,74.80
2019-05-15T04:32:59.646Z,77.10
2019-05-15T04:35:28.898Z,77.50
2019-05-15T04:37:59.716Z,78.40
2019-05-15T04:40:29.851Z,77.70
2019-05-15T04:42:59.408Z,76.10
2019-05-15T04:45:34.395Z,77.20
2019-05-15T04:47:58.869Z,77.70
2019-05-15T04:50:28.790Z,75.60
2019-05-15T04:52:59.302Z,77.80
2019-05-15T04:55:29.033Z,76.70
2019-05-15T04:57:59.229Z,76.40
2019-05-15T05:00:49.621Z,76.70
2019-05-15T05:03:19.762Z,76.20
2019-05-15T05:05:49.834Z,75.50
2019-05-15T05:08:20.040Z,74.60
2019-05-15T05:10:49.221Z,74.20
2019-05-15T05:13:19.852Z,75.20
2019-05-15T05:15:49.961Z,74.80
2019-05-15T05:18:18.990Z,75.40
2019-05-15T05:20:48.444Z,74.40
2019-05-15T05:23:19.145Z,73.90
2019-05-15T05:25:49.122Z,74.00
2019-05-15T05:28:18.221Z,74.70
2019-05-15T05:30:48.225Z,75.50
2019-05-15T05:33:17.919Z,76.50
2019-05-15T05:35:48.490Z,75.90
2019-05-15T05:38:19.198Z,75.20
2019-05-15T05:40:49.580Z,74.70
2019-05-15T05:43:18.454Z,74.40
2019-05-15T05:45:49.168Z,72.80
2019-05-15T05:48:18.641Z,72.30
2019-05-15T05:50:49.778Z,71.80
2019-05-15T05:53:20.856Z,72.60
2019-05-15T05:55:49.927Z,73.70
2019-05-15T05:58:19.672Z,72.20
2019-05-15T06:00:49.888Z,70.70
2019-05-15T06:03:19.557Z,70.50
2019-05-15T06:05:49.463Z,71.00
2019-05-15T06:08:19.589Z,70.00
2019-05-15T06:10:49.503Z,69.20
2019-05-15T06:13:18.734Z,67.30
2019-05-15T06:15:48.862Z,63.50
2019-05-15T06:18:19.461Z,62.30
2019-05-15T06:20:49.414Z,61.30
2019-05-15T06:23:23.516Z,58.80
2019-05-15T06:25:48.852Z,57.10
2019-05-15T06:28:19.538Z,57.30
2019-05-15T06:30:48.666Z,53.70
2019-05-15T06:33:18.807Z,54.00
2019-05-15T06:35:48.926Z,54.20
2019-05-15T06:38:19.438Z,52.70
2019-05-15T06:40:48.667Z,51.60
2019-05-15T06:43:19.123Z,49.50
2019-05-15T06:45:48.654Z,49.80
2019-05-15T06:48:18.351Z,49.60
2019-05-15T06:50:48.968Z,48.50
2019-05-15T06:53:19.329Z,48.20
2019-05-15T06:55:48.689Z,47.50
2019-05-15T06:58:19.230Z,47.90
2019-05-15T07:00:49.074Z,48.20
2019-05-15T07:03:24.839Z,47.60
2019-05-15T07:05:50.588Z,48.90
2019-05-15T07:08:18.575Z,47.50
2019-05-15T07:10:48.691Z,44.70
2019-05-15T07:13:18.264Z,45.30
2019-05-15T07:15:49.535Z,45.20
2019-05-15T07:18:19.733Z,44.00
2019-05-15T07:20:48.889Z,43.30
2019-05-15T07:23:18.720Z,43.30
2019-05-15T07:25:49.949Z,43.10
2019-05-15T07:28:18.408Z,43.10
2019-05-15T07:30:49.426Z,42.50
2019-05-15T07:33:27.943Z,41.60
2019-05-15T07:35:49.614Z,40.90
2019-05-15T07:38:18.593Z,41.20
2019-05-15T07:40:55.512Z,41.10
2019-05-15T07:43:18.223Z,39.90
2019-05-15T07:45:54.376Z,40.00
2019-05-15T07:48:18.785Z,40.50
2019-05-15T07:50:49.634Z,39.30
2019-05-15T07:53:19.763Z,39.00
2019-05-15T07:55:49.972Z,39.10
2019-05-15T07:58:21.463Z,40.70
2019-05-15T08:00:49.509Z,39.70
2019-05-15T08:03:18.601Z,39.90
2019-05-15T08:05:58.011Z,41.40
2019-05-15T08:08:18.443Z,40.10
2019-05-15T08:10:48.957Z,39.60
2019-05-15T08:13:18.416Z,39.20
2019-05-15T08:15:48.668Z,40.20
2019-05-15T08:18:18.015Z,40.20
2019-05-15T08:20:48.932Z,40.40
2019-05-15T08:23:19.360Z,40.40
2019-05-15T08:25:48.464Z,41.80
2019-05-15T08:28:19.182Z,40.80
2019-05-15T08:30:49.332Z,40.50
2019-05-15T08:33:18.170Z,40.70
2019-05-15T08:35:51.085Z,41.40
2019-05-15T08:38:18.167Z,41.80
2019-05-15T08:40:49.008Z,41.00
2019-05-15T08:43:18.381Z,41.90
2019-05-15T08:45:49.649Z,40.70
2019-05-15T08:48:18.546Z,41.50
2019-05-15T08:50:48.751Z,40.40
2019-05-15T08:53:19.278Z,40.50
2019-05-15T08:55:48.915Z,39.70
2019-05-15T08:58:20.173Z,40.40
2019-05-15T09:00:52.398Z,41.60
2019-05-15T09:03:18.454Z,40.50
2019-05-15T09:05:48.470Z,41.50
2019-05-15T09:08:19.533Z,42.20
2019-05-15T09:10:50.331Z,42.10
2019-05-15T09:13:19.143Z,41.50
2019-05-15T09:15:48.563Z,42.10
2019-05-15T09:18:19.894Z,41.80
2019-05-15T09:20:49.131Z,42.00
2019-05-15T09:23:19.198Z,41.60
2019-05-15T09:25:49.498Z,40.70
2019-05-15T09:28:19.168Z,40.20
2019-05-15T09:30:48.382Z,40.00
2019-05-15T09:33:20.066Z,39.40
2019-05-15T09:35:49.152Z,39.40
2019-05-15T09:38:18.378Z,41.20
2019-05-15T09:40:50.177Z,40.60
2019-05-15T09:43:18.301Z,40.80
2019-05-15T09:45:49.128Z,40.90
2019-05-15T09:48:19.717Z,39.60
2019-05-15T09:50:49.208Z,39.50
2019-05-15T09:53:18.872Z,39.70
2019-05-15T09:55:49.346Z,40.00
2019-05-15T09:58:20.210Z,39.80
2019-05-15T10:00:51.781Z,39.50
2019-05-15T10:03:19.188Z,40.60
2019-05-15T10:05:48.395Z,40.30
2019-05-15T10:08:17.053Z,39.70
2019-05-15T10:10:48.542Z,39.30
2019-05-15T10:13:18.269Z,38.70
2019-05-15T10:15:50.222Z,38.90
2019-05-15T10:18:18.985Z,38.60
2019-05-15T10:20:47.182Z,39.30
2019-05-15T10:23:19.107Z,40.60
2019-05-15T10:25:48.238Z,40.60
2019-05-15T10:28:18.667Z,38.80
2019-05-15T10:30:49.135Z,38.20
2019-05-15T10:33:19.266Z,39.50
2019-05-15T10:35:47.094Z,38.90
2019-05-15T10:38:15.527Z,38.80
2019-05-15T10:40:58.600Z,39.20
2019-05-15T10:43:14.674Z,38.80
2019-05-15T10:45:43.535Z,38.80
2019-05-15T10:48:12.053Z,38.30
2019-05-15T10:50:40.554Z,38.60
2019-05-15T10:53:11.371Z,38.40
2019-05-15T10:55:39.791Z,37.30
2019-05-15T10:58:16.675Z,38.20
2019-05-15T11:00:38.644Z,38.70
2019-05-15T11:03:08.846Z,37.90
2019-05-15T11:05:44.876Z,38.20
2019-05-15T11:08:08.360Z,37.90
2019-05-15T11:10:38.532Z,37.50
2019-05-15T11:13:09.062Z,38.30
2019-05-15T11:15:40.492Z,38.00
2019-05-15T11:18:09.328Z,37.90
2019-05-15T11:20:40.953Z,37.60
2019-05-15T11:23:12.678Z,37.40
2019-05-15T11:25:41.173Z,37.60
2019-05-15T11:28:09.602Z,37.20
2019-05-15T11:30:39.325Z,38.20
2019-05-15T11:33:09.606Z,37.90
2019-05-15T11:35:40.768Z,38.20
2019-05-15T11:38:10.015Z,38.30
2019-05-15T11:40:39.052Z,37.90
2019-05-15T11:43:08.570Z,38.70
2019-05-15T11:45:38.919Z,38.00
2019-05-15T11:48:09.108Z,38.90
2019-05-15T11:50:40.085Z,38.30
2019-05-15T11:53:08.759Z,38.00
2019-05-15T11:55:38.624Z,38.80
2019-05-15T11:58:09.275Z,38.30
2019-05-15T12:00:38.344Z,39.30
2019-05-15T12:03:09.027Z,38.90
2019-05-15T12:05:38.565Z,37.80
2019-05-15T12:08:08.710Z,38.40
2019-05-15T12:10:38.900Z,37.70
2019-05-15T12:13:09.840Z,38.60
2019-05-15T12:15:38.862Z,39.20
2019-05-15T12:18:08.814Z,38.70
2019-05-15T12:20:38.952Z,38.50
2019-05-15T12:23:09.041Z,37.80
2019-05-15T12:25:39.491Z,38.20
2019-05-15T12:28:09.572Z,36.80
2019-05-15T12:30:40.353Z,36.70
2019-05-15T12:33:09.747Z,38.10
2019-05-15T12:35:39.911Z,37.90
2019-05-15T12:38:09.996Z,38.30
2019-05-15T13:00:42.154Z,38.80
2019-05-15T13:03:10.666Z,38.60
2019-05-15T13:05:39.446Z,39.40
2019-05-15T13:08:08.499Z,38.60
2019-05-15T13:10:38.359Z,38.20
2019-05-15T13:13:09.533Z,38.00
2019-05-15T13:15:40.978Z,38.00
2019-05-15T13:18:13.852Z,37.90
2019-05-15T13:20:38.519Z,38.10
2019-05-15T13:23:07.214Z,37.50
2019-05-15T13:25:35.641Z,38.80
2019-05-15T13:28:04.237Z,39.70
2019-05-15T13:30:32.663Z,39.60
2019-05-15T13:33:01.252Z,39.20
2019-05-15T13:35:29.681Z,38.10
2019-05-15T13:37:58.673Z,38.90
2019-05-15T13:40:37.113Z,39.00
2019-05-15T13:42:58.918Z,38.50
2019-05-15T13:45:28.913Z,38.10
2019-05-15T13:47:57.612Z,38.00
2019-05-15T13:50:28.348Z,38.20
2019-05-15T13:52:58.851Z,38.50
2019-05-15T13:55:35.172Z,38.20
2019-05-15T13:57:58.026Z,38.20
2019-05-15T14:00:28.832Z,38.70
2019-05-15T14:02:58.452Z,39.00
2019-05-15T14:05:29.741Z,39.30
2019-05-15T14:07:58.410Z,38.90
2019-05-15T14:10:28.574Z,40.10
2019-05-15T14:12:58.356Z,40.70
2019-05-15T14:15:27.050Z,40.60
2019-05-15T14:17:57.680Z,40.70
2019-05-15T14:20:25.685Z,39.40
2019-05-15T14:22:54.141Z,40.80
2019-05-15T14:25:23.034Z,39.30
2019-05-15T14:27:51.478Z,39.80
2019-05-15T14:30:19.960Z,39.80
2019-05-15T14:32:48.559Z,39.30
2019-05-15T14:35:18.007Z,40.10
2019-05-15T14:38:01.837Z,40.70
2019-05-15T14:40:17.830Z,41.10
2019-05-15T14:42:48.607Z,40.50
2019-05-15T14:45:19.088Z,41.40
2019-05-15T14:47:49.217Z,40.70
2019-05-15T14:50:18.090Z,39.90
2019-05-15T14:52:47.958Z,40.70
2019-05-15T14:55:16.784Z,39.70
2019-05-15T14:57:45.260Z,39.90
2019-05-15T15:00:13.977Z,46.00
2019-05-15T15:02:42.493Z,47.70
2019-05-15T15:05:11.306Z,49.70
2019-05-15T15:07:40.109Z,51.00
2019-05-15T15:10:08.718Z,51.00
2019-05-15T15:12:39.767Z,51.90
2019-05-15T15:15:09.694Z,52.40
2019-05-15T15:17:38.558Z,52.60
2019-05-15T15:20:08.156Z,53.50
2019-05-15T15:22:39.148Z,54.20
2019-05-15T15:25:09.604Z,54.20
2019-05-15T15:27:38.727Z,54.60
2019-05-15T15:30:09.080Z,54.40
2019-05-15T15:32:38.449Z,53.90
2019-05-15T15:35:08.565Z,54.20
2019-05-15T15:37:38.164Z,54.60
2019-05-15T15:40:08.274Z,55.10
2019-05-15T15:42:39.528Z,55.50
2019-05-15T15:45:08.972Z,55.10
2019-05-15T15:47:38.935Z,55.60
2019-05-15T15:50:09.758Z,55.50
2019-05-15T15:52:38.976Z,55.70
2019-05-15T15:55:08.968Z,56.50
2019-05-15T15:57:39.593Z,55.40
2019-05-15T16:00:09.923Z,55.60
2019-05-15T16:02:41.002Z,55.40
2019-05-15T16:05:09.823Z,56.00
2019-05-15T16:07:38.381Z,55.80
2019-05-15T16:10:08.360Z,55.60
2019-05-15T16:12:38.911Z,55.80
2019-05-15T16:15:08.813Z,56.40
2019-05-15T16:17:38.392Z,56.60
2019-05-15T16:20:08.753Z,56.50
2019-05-15T16:22:38.217Z,56.50
2019-05-15T16:25:09.835Z,56.40
2019-05-15T16:27:39.063Z,56.20
2019-05-15T16:30:08.482Z,56.90
2019-05-15T16:32:38.749Z,56.70
2019-05-15T16:35:09.878Z,57.10
2019-05-15T16:37:39.114Z,57.40
2019-05-15T16:40:08.331Z,57.10
2019-05-15T16:42:38.527Z,56.80
2019-05-15T16:45:09.371Z,56.80
2019-05-15T16:47:38.817Z,57.10
2019-05-15T16:50:08.726Z,57.10
2019-05-15T16:52:38.749Z,58.00
2019-05-15T16:55:09.517Z,58.40
2019-05-15T16:57:38.772Z,58.00
2019-05-15T17:00:10.041Z,58.20
2019-05-15T17:02:39.783Z,58.80
2019-05-15T17:05:09.750Z,59.20
2019-05-15T17:07:38.857Z,59.40
2019-05-15T17:10:08.366Z,59.70
2019-05-15T17:12:38.822Z,59.70
2019-05-15T17:15:08.596Z,59.40
2019-05-15T17:17:38.868Z,59.60
2019-05-15T17:20:09.697Z,60.30
2019-05-15T17:22:38.610Z,60.30
2019-05-15T17:25:09.399Z,61.20
2019-05-15T17:27:37.461Z,61.30
2019-05-15T17:30:08.935Z,62.60
2019-05-15T17:32:38.792Z,62.40
2019-05-15T17:35:09.773Z,62.80
2019-05-15T17:37:38.594Z,63.80
2019-05-15T17:40:08.152Z,63.50
2019-05-15T17:42:39.088Z,63.60
2019-05-15T17:45:09.099Z,63.50
2019-05-15T17:47:39.259Z,63.30
2019-05-15T17:50:09.052Z,63.80
2019-05-15T17:52:38.817Z,64.20
2019-05-15T17:55:07.970Z,64.80
2019-05-15T17:57:38.618Z,65.10
2019-05-15T18:00:12.191Z,64.20
2019-05-15T18:02:39.313Z,64.30
2019-05-15T18:05:08.392Z,64.50
2019-05-15T18:07:39.028Z,64.70
2019-05-15T18:10:08.405Z,65.00
2019-05-15T18:12:38.834Z,65.00
2019-05-15T18:15:09.084Z,65.20
2019-05-15T18:17:39.284Z,65.20
2019-05-15T18:20:10.399Z,66.00
2019-05-15T18:22:39.844Z,66.40
2019-05-15T18:25:09.030Z,66.60
2019-05-15T18:27:39.071Z,66.60
2019-05-15T18:30:09.320Z,67.00
2019-05-15T18:32:39.100Z,68.20
2019-05-15T18:35:08.443Z,68.50
2019-05-15T18:37:39.240Z,69.00
2019-05-15T18:40:09.835Z,69.90
2019-05-15T18:42:39.487Z,70.70
2019-05-15T18:45:10.363Z,71.30
2019-05-15T18:47:39.175Z,71.70
2019-05-15T18:50:12.605Z,73.10
2019-05-15T18:52:38.582Z,73.60
2019-05-15T18:55:08.506Z,74.50
2019-05-15T18:57:38.643Z,74.90
2019-05-15T19:00:08.817Z,75.60
2019-05-15T19:02:39.315Z,77.50
2019-05-15T19:05:08.459Z,78.70
2019-05-15T19:07:38.334Z,79.50
2019-05-15T19:10:07.948Z,79.80
2019-05-15T19:12:37.858Z,79.70
2019-05-15T19:15:09.320Z,79.10
2019-05-15T19:17:38.928Z,82.50
2019-05-15T19:20:08.577Z,85.70
2019-05-15T19:22:40.633Z,86.40
2019-05-15T19:25:09.007Z,87.70
2019-05-15T19:27:39.358Z,87.90
2019-05-15T19:30:09.450Z,88.00
2019-05-15T19:32:38.778Z,87.60
2019-05-15T19:35:08.684Z,87.50
2019-05-15T19:37:38.453Z,88.30
2019-05-15T19:40:07.343Z,90.00
2019-05-15T19:42:38.077Z,90.90
2019-05-15T19:45:08.526Z,91.70
2019-05-15T19:47:38.801Z,92.50
2019-05-15T19:50:08.864Z,93.00
2019-05-15T19:52:37.389Z,92.90
2019-05-15T19:55:08.542Z,92.70
2019-05-15T19:57:38.663Z,93.30
2019-05-15T20:00:08.519Z,94.00
2019-05-15T20:02:38.110Z,95.30
2019-05-15T20:05:09.093Z,97.10
2019-05-15T20:07:38.917Z,97.90
2019-05-15T20:10:09.446Z,98.00
2019-05-15T20:12:39.262Z,98.30
2019-05-15T20:15:10.069Z,98.80
2019-05-15T20:17:38.882Z,99.90
2019-05-15T20:20:08.706Z,99.90
2019-05-15T20:22:40.149Z,99.90
2019-05-15T20:25:08.623Z,99.90
2019-05-15T20:27:39.170Z,99.90
2019-05-15T20:30:08.682Z,99.90
2019-05-15T20:32:38.559Z,99.90
2019-05-15T20:35:08.643Z,99.90
2019-05-15T20:37:38.958Z,99.90
2019-05-15T20:40:10.089Z,99.90
2019-05-15T20:42:39.221Z,99.90
2019-05-15T20:45:11.292Z,99.90
2019-05-15T20:47:38.976Z,99.90
2019-05-15T20:50:08.735Z,99.90
2019-05-15T20:52:39.342Z,99.90
2019-05-15T20:55:08.870Z,99.90
2019-05-15T20:57:38.485Z,99.90
2019-05-15T21:00:08.812Z,99.90
2019-05-15T21:02:38.002Z,99.90
2019-05-15T21:05:08.760Z,99.90
2019-05-15T21:07:42.082Z,99.90
2019-05-15T21:10:09.695Z,99.90
2019-05-15T21:12:40.930Z,99.90
2019-05-15T21:15:09.130Z,99.90
2019-05-15T21:17:39.447Z,99.90
2019-05-15T21:20:09.456Z,99.90
2019-05-15T21:22:40.365Z,99.90
2019-05-15T21:25:10.965Z,99.90
2019-05-15T21:27:42.088Z,99.90
2019-05-15T21:30:10.102Z,99.90
2019-05-15T21:32:38.610Z,99.90
2019-05-15T21:35:09.083Z,99.90
2019-05-15T21:37:38.943Z,99.90
2019-05-15T21:40:08.383Z,99.90
2019-05-15T21:42:39.146Z,99.90
2019-05-15T21:45:13.942Z,99.90
2019-05-15T21:47:38.643Z,99.90
2019-05-15T21:50:08.058Z,99.90
2019-05-15T21:52:39.120Z,99.90
2019-05-15T21:55:09.286Z,99.90
2019-05-15T21:57:40.164Z,99.90
2019-05-15T22:00:17.902Z,99.90
2019-05-15T22:02:46.149Z,99.90
2019-05-15T22:05:14.672Z,99.90
2019-05-15T22:07:43.168Z,99.90
2019-05-15T22:10:12.206Z,99.90
2019-05-15T22:12:41.766Z,99.90
2019-05-15T22:15:10.401Z,99.90
2019-05-15T22:17:39.148Z,99.90
2019-05-15T22:20:08.806Z,99.90
2019-05-15T22:22:37.693Z,99.90
2019-05-15T22:25:10.775Z,99.90
2019-05-15T22:27:38.247Z,99.90
2019-05-15T22:30:08.244Z,99.90
2019-05-15T22:32:41.233Z,99.90
2019-05-15T22:35:13.445Z,99.90
2019-05-15T22:37:41.456Z,99.90
2019-05-15T22:40:09.407Z,99.90
2019-05-15T22:42:39.086Z,99.90
2019-05-15T22:45:09.012Z,99.90
2019-05-15T22:47:39.079Z,99.90
2019-05-15T22:50:08.607Z,99.90
2019-05-15T22:52:38.918Z,99.90
2019-05-15T22:55:08.141Z,99.90
2019-05-15T22:57:38.650Z,99.90
2019-05-15T23:00:08.643Z,99.90
2019-05-15T23:02:37.845Z,99.90
2019-05-15T23:05:19.804Z,99.90
2019-05-15T23:07:39.037Z,99.90
2019-05-15T23:10:08.913Z,99.90
2019-05-15T23:12:38.240Z,99.90
2019-05-15T23:15:08.588Z,99.90
2019-05-15T23:17:38.274Z,99.90
2019-05-15T23:20:08.706Z,99.90
2019-05-15T23:22:38.545Z,99.90
2019-05-15T23:25:07.510Z,99.90
2019-05-15T23:27:37.934Z,99.90
2019-05-15T23:30:08.707Z,99.90
2019-05-15T23:32:39.062Z,99.90
2019-05-15T23:35:07.286Z,99.90
2019-05-15T23:37:35.797Z,99.90
2019-05-15T23:40:04.930Z,99.90
2019-05-15T23:42:33.426Z,99.90
2019-05-15T23:45:02.986Z,99.90
2019-05-15T23:47:31.481Z,99.90
2019-05-15T23:50:00.281Z,99.90
2019-05-15T23:52:28.612Z,99.90
2019-05-15T23:54:58.950Z,99.90
2019-05-15T23:57:28.686Z,99.90
2019-05-15T23:59:57.957Z,99.90
